Time;durP1;ratioP1;P1;durP2;ratioP2;P2;SDS_P1;SDS_P2;PMS_P1;PMS_P2;Temp;Humidity;BMP_temperature;BMP_pressure;BME280_temperature;BME280_humidity;BME280_pressure;Samples;Min_cycle;Max_cycle;Signal;HPM_P1;HPM_P2
2023/11/02 00:00:35;;;;;;;0.40;0.37;;;;;;;13.61;59.20;99252.53;4384717;32;32821;-91
2023/11/02 00:03:05;;;;;;;0.00;0.00;;;;;;;13.72;58.42;99240.28;4409983;32;32866;-91
2023/11/02 00:05:56;;;;;;;0.40;0.40;;;;;;;14.11;57.26;99241.25;4396936;32;33392;-91
2023/11/02 00:08:33;;;;;;;0.57;0.30;;;;;;;13.80;58.07;99237.09;4422481;32;32638;-91
2023/11/02 00:11:39;;;;;;;0.45;0.45;;;;;;;14.08;57.43;99231.66;4409365;32;32593;-91
2023/11/02 00:14:07;;;;;;;0.50;0.50;;;;;;;13.86;58.38;99243.81;4409101;32;34359;-91
2023/11/02 00:16:35;;;;;;;0.35;0.35;;;;;;;13.77;58.28;99232.88;4393268;32;32661;-91
2023/11/02 00:19:04;;;;;;;0.98;0.75;;;;;;;13.74;58.48;99237.53;4409085;32;32434;-91
2023/11/02 00:21:33;;;;;;;0.13;0.13;;;;;;;13.69;58.72;99229.00;4409648;32;33273;-91
2023/11/02 00:24:01;;;;;;;2.17;1.37;;;;;;;14.03;57.77;99217.00;4389996;32;33010;-91
2023/11/02 00:26:29;;;;;;;0.55;0.55;;;;;;;13.83;58.23;99216.53;4409245;32;33800;-91
2023/11/02 00:28:57;;;;;;;3.45;0.70;;;;;;;13.64;58.80;99213.41;4381720;32;33358;-91
2023/11/02 00:31:25;;;;;;;0.20;0.20;;;;;;;13.69;58.34;99218.41;4396717;32;32664;-91
2023/11/02 00:33:53;;;;;;;0.00;0.00;;;;;;;13.80;58.21;99214.06;4396917;32;33468;-91
2023/11/02 00:36:24;;;;;;;0.10;0.10;;;;;;;13.62;58.49;99198.50;4384068;32;34048;-90
2023/11/02 00:38:56;;;;;;;0.25;0.25;;;;;;;13.46;58.51;99209.28;4397134;32;32563;-91
2023/11/02 00:41:25;;;;;;;0.13;0.13;;;;;;;13.43;58.73;99210.31;4385992;32;33574;-90
2023/11/02 00:43:52;;;;;;;0.65;0.45;;;;;;;13.59;58.20;99196.94;4396205;32;33069;-90
2023/11/02 00:46:20;;;;;;;0.10;0.10;;;;;;;13.48;58.70;99202.94;4395287;32;33964;-90
2023/11/02 00:48:49;;;;;;;0.57;0.57;;;;;;;13.69;58.12;99202.47;4396236;32;32206;-90
2023/11/02 00:51:21;;;;;;;1.17;1.08;;;;;;;13.63;58.39;99203.75;4408478;32;32674;-90
2023/11/02 00:54:00;;;;;;;0.20;0.15;;;;;;;13.62;58.41;99202.00;4395510;32;33241;-90
2023/11/02 00:56:35;;;;;;;0.00;0.00;;;;;;;13.85;57.48;99181.91;4395349;32;32892;-90
2023/11/02 00:59:04;;;;;;;0.35;0.28;;;;;;;13.28;59.41;99195.41;4395651;32;32498;-90
2023/11/02 01:01:32;;;;;;;0.55;0.45;;;;;;;13.11;60.22;99190.31;4396692;32;33268;-90
2023/11/02 01:04:07;;;;;;;0.05;0.05;;;;;;;13.38;59.26;99187.72;4378879;32;34076;-91
2023/11/02 01:06:36;;;;;;;0.17;0.17;;;;;;;13.19;59.52;99198.63;4409857;32;32811;-92
2023/11/02 01:09:46;;;;;;;4.70;0.52;;;;;;;13.72;58.15;99175.72;4397549;32;32215;-92
2023/11/02 01:12:31;;;;;;;0.90;0.68;;;;;;;13.63;58.58;99177.22;4410679;32;32956;-92
2023/11/02 01:15:00;;;;;;;0.30;0.30;;;;;;;13.05;60.36;99200.37;4384615;32;33263;-91
2023/11/02 01:17:32;;;;;;;0.55;0.50;;;;;;;12.87;60.90;99190.94;4399023;32;33248;-92
2023/11/02 01:20:08;;;;;;;0.77;0.65;;;;;;;13.16;60.23;99193.53;4398330;32;31948;-91
2023/11/02 01:22:37;;;;;;;0.13;0.13;;;;;;;12.77;61.63;99192.41;4414259;32;33620;-91
2023/11/02 01:25:11;;;;;;;1.80;0.68;;;;;;;12.99;61.13;99187.47;4411526;32;34019;-91
2023/11/02 01:27:40;;;;;;;0.62;0.52;;;;;;;13.25;59.99;99177.91;4407882;32;32590;-91
2023/11/02 01:30:17;;;;;;;0.55;0.55;;;;;;;12.54;62.41;99207.97;4398535;32;32335;-91
2023/11/02 01:32:47;;;;;;;1.92;1.05;;;;;;;12.72;61.77;99207.75;4412596;32;32156;-91
2023/11/02 01:35:34;;;;;;;0.65;0.65;;;;;;;12.92;61.08;99194.13;4399041;32;32956;-91
2023/11/02 01:38:03;;;;;;;0.88;0.50;;;;;;;12.53;62.37;99195.66;4404695;32;32620;-92
2023/11/02 01:40:58;;;;;;;1.85;0.95;;;;;;;12.73;61.48;99175.03;4406918;32;31096;-91
2023/11/02 01:43:37;;;;;;;0.90;0.80;;;;;;;12.65;61.86;99182.59;4399821;32;33178;-91
2023/11/02 01:46:13;;;;;;;0.82;0.80;;;;;;;12.77;61.75;99192.41;4399484;32;34178;-91
2023/11/02 01:48:51;;;;;;;3.50;1.08;;;;;;;12.99;60.24;99184.84;4384166;32;32878;-91
2023/11/02 01:51:27;;;;;;;1.45;0.68;;;;;;;13.15;60.06;99182.06;4397041;32;33209;-91
2023/11/02 01:54:04;;;;;;;0.08;0.08;;;;;;;13.15;60.01;99167.94;4409825;32;33016;-90
2023/11/02 01:56:53;;;;;;;0.73;0.73;;;;;;;12.86;60.68;99175.94;4409656;32;33305;-91
2023/11/02 01:59:39;;;;;;;1.45;0.35;;;;;;;13.32;59.56;99162.44;4393434;32;33039;-90
2023/11/02 02:02:30;;;;;;;0.62;0.30;;;;;;;13.04;59.93;99161.53;4397206;32;32283;-91
2023/11/02 02:05:03;;;;;;;0.10;0.10;;;;;;;12.69;61.63;99174.38;4391664;32;34586;-91
2023/11/02 02:07:31;;;;;;;;;;;;;;;12.79;60.94;99170.19;4410762;32;34010;-91
2023/11/02 02:10:07;;;;;;;0.00;0.00;;;;;;;12.78;61.27;99170.31;4399630;32;33060;-91
2023/11/02 02:12:51;;;;;;;0.52;0.25;;;;;;;12.85;60.56;99147.75;4398972;32;32286;-91
2023/11/02 02:15:30;;;;;;;0.00;0.00;;;;;;;13.28;59.38;99145.03;4394277;32;32808;-90
2023/11/02 02:18:33;;;;;;;0.00;0.00;;;;;;;12.61;61.46;99159.91;4394518;32;33333;-90
2023/11/02 02:21:07;;;;;;;1.90;1.27;;;;;;;12.91;60.61;99155.31;4405619;32;33526;-91
2023/11/02 02:23:51;;;;;;;2.87;1.25;;;;;;;12.95;60.87;99150.66;4382670;32;32357;-90
2023/11/02 02:26:58;;;;;;;0.20;0.10;;;;;;;13.02;60.51;99141.41;4383043;32;34128;-91
2023/11/02 02:29:44;;;;;;;2.20;0.70;;;;;;;12.60;61.94;99159.06;4394895;32;32830;-91
2023/11/02 02:32:28;;;;;;;0.30;0.30;;;;;;;13.05;60.72;99149.13;4370657;32;32965;-91
2023/11/02 02:35:05;;;;;;;2.40;0.25;;;;;;;12.79;61.42;99153.47;4388721;32;32732;-91
2023/11/02 02:37:40;;;;;;;0.30;0.30;;;;;;;12.74;61.53;99155.53;4395001;32;33892;-92
2023/11/02 02:40:21;;;;;;;0.28;0.28;;;;;;;12.55;61.98;99153.19;4382623;32;33102;-91
2023/11/02 02:42:50;;;;;;;1.85;1.50;;;;;;;12.66;61.81;99150.72;4395229;32;33212;-92
2023/11/02 02:45:18;;;;;;;1.85;0.65;;;;;;;12.69;61.41;99144.38;4394678;32;32560;-92
2023/11/02 02:47:47;;;;;;;0.35;0.20;;;;;;;12.51;62.11;99138.44;4395271;32;32712;-91
2023/11/02 02:50:18;;;;;;;1.77;0.32;;;;;;;12.43;62.22;99141.53;4358273;32;32494;-92
2023/11/02 02:52:48;;;;;;;0.40;0.37;;;;;;;12.59;61.90;99141.47;4383503;32;31828;-92
2023/11/02 02:55:16;;;;;;;0.00;0.00;;;;;;;12.71;61.26;99134.53;4399955;32;32859;-91
2023/11/02 02:57:48;;;;;;;0.40;0.40;;;;;;;12.40;62.39;99146.19;4383001;32;33719;-92
2023/11/02 03:00:19;;;;;;;2.37;0.65;;;;;;;12.42;62.63;99142.50;4383621;32;33186;-92
2023/11/02 03:02:50;;;;;;;0.05;0.05;;;;;;;12.53;61.89;99136.53;4371631;32;33387;-92
2023/11/02 03:05:19;;;;;;;0.75;0.60;;;;;;;12.28;63.03;99142.50;4383975;32;33410;-92
2023/11/02 03:07:56;;;;;;;;;;;;;;;12.54;61.73;99128.50;4372152;32;33233;-92
2023/11/02 03:10:48;;;;;;;0.28;0.28;;;;;;;12.53;62.18;99131.22;4409673;32;33106;-93
2023/11/02 03:13:17;;;;;;;0.10;0.10;;;;;;;12.81;61.18;99106.50;4371320;32;33218;-92
2023/11/02 03:16:00;;;;;;;0.00;0.00;;;;;;;12.19;62.95;99132.47;4401905;32;33089;-92
2023/11/02 03:18:34;;;;;;;1.08;1.08;;;;;;;12.55;61.84;99124.91;4389979;32;32697;-92
2023/11/02 03:21:06;;;;;;;0.65;0.62;;;;;;;12.54;61.95;99125.88;4370507;32;32889;-90
2023/11/02 03:23:36;;;;;;;0.60;0.45;;;;;;;12.28;62.70;99127.47;4379236;32;32323;-90
2023/11/02 03:26:13;;;;;;;1.15;0.70;;;;;;;12.64;61.72;99134.06;4382026;32;33252;-90
2023/11/02 03:28:51;;;;;;;0.10;0.08;;;;;;;12.60;61.68;99124.63;4393678;32;33733;-89
2023/11/02 03:31:45;;;;;;;3.05;1.45;;;;;;;12.55;62.29;99124.91;4387506;32;33036;-92
2023/11/02 03:34:50;;;;;;;1.95;0.55;;;;;;;12.52;61.90;99125.09;4377528;32;33057;-90
2023/11/02 03:37:21;;;;;;;1.85;0.95;;;;;;;12.61;61.93;99122.81;4393860;32;34127;-90
2023/11/02 03:40:02;;;;;;;0.32;0.32;;;;;;;12.93;60.62;99116.34;4399984;32;33842;-90
2023/11/02 03:42:45;;;;;;;1.05;0.95;;;;;;;12.89;60.65;99106.88;4412962;32;33224;-91
2023/11/02 03:45:35;;;;;;;1.30;0.52;;;;;;;12.52;62.07;99113.66;4396133;32;32875;-91
2023/11/02 03:48:42;;;;;;;0.35;0.22;;;;;;;12.76;61.15;99105.94;4394856;32;32753;-90
2023/11/02 03:51:38;;;;;;;0.30;0.30;;;;;;;12.29;62.79;99107.13;4405230;32;32639;-90
2023/11/02 03:54:42;;;;;;;0.62;0.62;;;;;;;12.67;61.20;99109.19;4407069;32;32915;-89
2023/11/02 03:57:26;;;;;;;4.30;0.50;;;;;;;12.52;62.27;99119.78;4385842;32;33218;-90
2023/11/02 03:59:57;;;;;;;0.47;0.47;;;;;;;12.52;61.41;99114.50;4406460;32;32357;-90
2023/11/02 04:02:31;;;;;;;0.00;0.00;;;;;;;12.62;61.73;99098.03;4379971;32;32906;-92
2023/11/02 04:05:13;;;;;;;0.00;0.00;;;;;;;13.07;60.19;99089.78;4384505;32;32855;-92
2023/11/02 04:07:58;;;;;;;0.88;0.88;;;;;;;12.43;62.31;99091.25;4396754;32;32779;-92
2023/11/02 04:10:27;;;;;;;0.85;0.85;;;;;;;12.29;62.97;99078.00;4371531;32;33541;-93
2023/11/02 04:13:07;;;;;;;0.25;0.20;;;;;;;12.02;63.98;99084.06;4396617;32;33566;-92
2023/11/02 04:15:36;;;;;;;0.98;0.88;;;;;;;12.54;61.86;99080.84;4400643;32;33037;-91
2023/11/02 04:18:04;;;;;;;0.50;0.50;;;;;;;12.35;62.09;99082.94;4409525;32;32903;-92
2023/11/02 04:20:31;;;;;;;0.62;0.35;;;;;;;12.20;62.89;99084.75;4410063;32;32240;-92
2023/11/02 04:23:45;;;;;;;0.20;0.20;;;;;;;12.74;61.21;99071.63;4353610;32;33917;-92
2023/11/02 04:26:32;;;;;;;0.00;0.00;;;;;;;12.34;62.55;99062.69;4355948;32;34191;-91
2023/11/02 04:29:16;;;;;;;0.37;0.37;;;;;;;12.19;63.00;99068.94;4373929;32;33793;-91
2023/11/02 04:31:45;;;;;;;0.52;0.52;;;;;;;12.24;62.69;99069.50;4356359;32;32058;-91
2023/11/02 04:34:33;;;;;;;0.28;0.28;;;;;;;12.28;62.87;99071.03;4380660;32;32825;-92
2023/11/02 04:37:14;;;;;;;0.70;0.70;;;;;;;12.13;63.01;99074.62;4383828;32;33189;-92
2023/11/02 04:40:07;;;;;;;0.10;0.10;;;;;;;12.52;61.85;99066.84;4378792;32;32736;-91
2023/11/02 04:42:35;;;;;;;0.00;0.00;;;;;;;12.66;61.09;99062.47;4393981;32;33265;-91
2023/11/02 04:45:46;;;;;;;0.25;0.25;;;;;;;12.19;63.04;99075.09;4384705;32;32780;-92
2023/11/02 04:48:14;;;;;;;0.00;0.00;;;;;;;12.28;62.57;99068.38;4394182;32;32943;-91
2023/11/02 04:50:43;;;;;;;0.22;0.22;;;;;;;12.44;61.86;99061.19;4379840;32;33570;-92
2023/11/02 04:53:12;;;;;;;0.10;0.00;;;;;;;12.51;61.76;99059.84;4383624;32;32370;-91
2023/11/02 04:55:41;;;;;;;0.93;0.93;;;;;;;11.88;63.35;99064.69;4422308;32;32861;-91
2023/11/02 04:58:11;;;;;;;0.45;0.15;;;;;;;11.87;63.87;99071.78;4414715;32;32522;-90
2023/11/02 05:00:38;;;;;;;1.08;1.02;;;;;;;12.11;63.20;99066.78;4409571;32;32850;-92
2023/11/02 05:03:07;;;;;;;0.28;0.28;;;;;;;12.15;62.77;99065.63;4397344;32;31971;-92
2023/11/02 05:05:35;;;;;;;0.43;0.43;;;;;;;12.57;61.26;99054.16;4414297;32;33629;-92
2023/11/02 05:08:03;;;;;;;17.65;0.68;;;;;;;12.11;62.72;99058.00;4384520;32;32845;-91
2023/11/02 05:10:32;;;;;;;0.65;0.65;;;;;;;12.05;63.26;99054.75;4397202;32;32412;-91
2023/11/02 05:12:59;;;;;;;0.77;0.77;;;;;;;11.83;63.91;99051.75;4384406;32;32321;-92
2023/11/02 05:15:28;;;;;;;1.73;0.32;;;;;;;12.37;61.97;99046.63;4384070;32;32896;-92
2023/11/02 05:18:16;;;;;;;0.00;0.00;;;;;;;12.17;62.48;99060.25;4400569;32;34146;-92
2023/11/02 05:20:44;;;;;;;0.35;0.35;;;;;;;11.39;65.42;99057.00;4408728;32;33401;-93
2023/11/02 05:24:09;;;;;;;2.80;0.30;;;;;;;11.86;63.85;99056.84;4357195;32;33203;-93
2023/11/02 05:26:39;;;;;;;0.13;0.13;;;;;;;12.01;63.15;99060.34;4379056;32;33755;-94
2023/11/02 05:29:14;;;;;;;0.60;0.47;;;;;;;12.46;61.74;99050.50;4377181;32;33891;-92
2023/11/02 05:31:41;;;;;;;1.67;1.08;;;;;;;12.03;62.89;99047.87;4376794;32;32950;-93
2023/11/02 05:35:09;;;;;;;0.20;0.20;;;;;;;11.93;63.36;99054.69;4367191;32;33450;-93
2023/11/02 05:37:39;;;;;;;0.08;0.08;;;;;;;11.85;63.59;99049.00;4381146;32;33453;-93
2023/11/02 05:40:28;;;;;;;1.67;0.45;;;;;;;12.00;63.16;99048.91;4356381;32;33009;-93
2023/11/02 05:44:22;;;;;;;0.43;0.15;;;;;;;12.02;62.87;99051.47;4396227;32;35393;-93
2023/11/02 05:47:13;;;;;;;0.20;0.20;;;;;;;11.72;63.72;99032.97;4319277;33;32011;-93
2023/11/02 05:50:01;;;;;;;0.57;0.43;;;;;;;11.97;63.10;99049.13;4328852;33;32963;-93
2023/11/02 05:52:34;;;;;;;0.15;0.15;;;;;;;11.98;62.99;99050.81;4323588;33;32810;-93
2023/11/02 05:55:05;;;;;;;0.00;0.00;;;;;;;12.11;62.47;99052.72;4323009;33;32130;-93
2023/11/02 05:57:35;;;;;;;0.50;0.50;;;;;;;12.14;62.54;99044.56;4354700;32;31201;-93
2023/11/02 06:00:10;;;;;;;1.37;0.88;;;;;;;12.15;62.40;99031.22;4337148;32;33607;-93
2023/11/02 06:02:40;;;;;;;3.72;0.40;;;;;;;11.85;63.31;99033.97;4370971;32;34175;-92
2023/11/02 06:05:08;;;;;;;1.30;1.20;;;;;;;11.96;63.17;99036.84;4349903;32;34294;-92
2023/11/02 06:07:37;;;;;;;1.10;1.00;;;;;;;11.90;63.04;99042.47;4369902;32;31990;-93
2023/11/02 06:10:10;;;;;;;0.65;0.45;;;;;;;11.92;63.02;99042.41;4355664;32;32651;-91
2023/11/02 06:12:40;;;;;;;0.20;0.20;;;;;;;11.64;64.21;99043.19;4336480;32;33773;-91
2023/11/02 06:15:11;;;;;;;0.62;0.62;;;;;;;11.64;64.39;99043.19;4328083;32;32996;-92
2023/11/02 06:17:40;;;;;;;9.60;2.92;;;;;;;11.61;64.87;99040.72;4376703;32;32841;-92
2023/11/02 06:20:15;;;;;;;0.52;0.50;;;;;;;11.72;64.32;99041.75;4397953;32;33551;-92
2023/11/02 06:22:45;;;;;;;0.75;0.75;;;;;;;11.48;65.12;99041.44;4410041;32;33863;-91
2023/11/02 06:25:15;;;;;;;0.52;0.52;;;;;;;11.29;66.42;99040.84;4397687;32;32535;-91
2023/11/02 06:27:46;;;;;;;3.65;0.70;;;;;;;11.72;64.49;99041.75;4380735;32;32350;-92
2023/11/02 06:30:17;;;;;;;1.45;0.85;;;;;;;11.47;65.29;99039.75;4398004;32;32821;-92
2023/11/02 06:32:45;;;;;;;0.22;0.22;;;;;;;11.43;65.64;99038.22;4410760;32;32928;-92
2023/11/02 06:35:20;;;;;;;0.10;0.10;;;;;;;11.76;64.63;99035.34;4403480;32;117957;-92
2023/11/02 06:37:56;;;;;;;1.33;0.43;;;;;;;11.97;64.30;99042.97;4410134;32;32178;-91
2023/11/02 06:40:26;;;;;;;1.30;0.80;;;;;;;11.97;64.31;99040.34;4398303;32;34325;-91
2023/11/02 06:42:56;;;;;;;2.28;0.45;;;;;;;12.09;63.78;99041.34;4397222;32;34200;-92
2023/11/02 06:45:24;;;;;;;2.10;1.35;;;;;;;12.11;63.98;99039.47;4410593;32;33740;-92
2023/11/02 06:47:56;;;;;;;0.20;0.20;;;;;;;12.08;64.03;99037.88;4384476;32;32192;-92
2023/11/02 06:50:46;;;;;;;0.10;0.10;;;;;;;12.17;63.65;99026.72;4389788;32;32957;-92
2023/11/02 06:53:15;;;;;;;0.10;0.10;;;;;;;12.00;63.98;99033.03;4397600;32;34285;-92
2023/11/02 06:55:43;;;;;;;0.98;0.40;;;;;;;12.19;63.69;99029.25;4396899;32;33689;-91
2023/11/02 06:58:11;;;;;;;0.35;0.25;;;;;;;11.96;64.27;99036.84;4397704;32;32507;-93
2023/11/02 07:01:18;;;;;;;0.37;0.37;;;;;;;11.78;64.94;99036.12;4417072;32;32678;-92
2023/11/02 07:03:46;;;;;;;0.50;0.37;;;;;;;11.78;64.67;99032.63;4414953;32;34083;-92
2023/11/02 07:06:18;;;;;;;1.40;1.08;;;;;;;12.04;64.21;99031.91;4407998;32;32810;-92
2023/11/02 07:09:06;;;;;;;2.15;0.73;;;;;;;12.16;63.63;99025.00;4406059;32;32653;-92
2023/11/02 07:11:37;;;;;;;0.22;0.22;;;;;;;12.31;63.54;99031.13;4402708;32;32485;-92
2023/11/02 07:14:06;;;;;;;1.05;0.95;;;;;;;12.23;63.91;99039.53;4414820;32;32890;-92
2023/11/02 07:16:37;;;;;;;1.17;1.17;;;;;;;12.36;63.31;99031.69;4413930;32;34445;-93
2023/11/02 07:19:20;;;;;;;15.10;1.40;;;;;;;12.20;64.10;99025.66;4446698;32;33251;-92
2023/11/02 07:22:26;;;;;;;0.55;0.55;;;;;;;12.73;62.51;99018.75;4435328;32;32736;-89
2023/11/02 07:25:13;;;;;;;0.35;0.35;;;;;;;12.68;62.89;99018.19;4402274;32;32893;-89
2023/11/02 07:27:41;;;;;;;0.75;0.75;;;;;;;12.86;62.26;99013.47;4398737;32;32897;-89
2023/11/02 07:30:11;;;;;;;0.00;0.00;;;;;;;13.04;61.31;99009.63;4372504;32;31421;-89
2023/11/02 07:32:39;;;;;;;0.98;0.95;;;;;;;13.06;60.99;99003.28;4397791;32;34130;-88
2023/11/02 07:35:08;;;;;;;0.77;0.77;;;;;;;13.18;60.42;98995.47;4382855;32;34128;-89
2023/11/02 07:37:36;;;;;;;0.10;0.10;;;;;;;12.88;61.07;98998.34;4385656;32;34516;-92
2023/11/02 07:44:29;;;;;;;0.68;0.68;;;;;;;13.00;61.29;98992.22;4318823;33;33222;-91
2023/11/02 07:46:57;;;;;;;1.85;1.65;;;;;;;13.38;59.99;98996.78;4306431;33;33028;-91
2023/11/02 07:49:24;;;;;;;0.90;0.80;;;;;;;13.33;60.38;99007.72;4318709;33;33059;-91
2023/11/02 07:51:52;;;;;;;1.05;0.75;;;;;;;13.35;60.42;99000.50;4306406;33;32250;-91
2023/11/02 07:54:21;;;;;;;0.77;0.68;;;;;;;13.72;59.25;98993.53;4316289;33;33359;-92
2023/11/02 07:58:36;;;;;;;1.52;1.20;;;;;;;13.75;59.00;98992.47;4354358;32;34674;-92
2023/11/02 08:01:05;;;;;;;1.27;1.23;;;;;;;13.61;59.62;98993.41;4401538;32;32412;-90
2023/11/02 08:03:33;;;;;;;2.80;0.73;;;;;;;13.54;59.67;98970.94;4366462;32;32490;-92
2023/11/02 08:06:17;;;;;;;1.90;1.17;;;;;;;13.28;60.63;98980.66;4354320;32;32811;-92
2023/11/02 08:09:24;;;;;;;0.47;0.47;;;;;;;13.58;59.74;98981.22;4373558;32;32514;-91
2023/11/02 08:12:13;;;;;;;0.55;0.55;;;;;;;13.58;59.85;98983.03;4375787;32;32930;-91
2023/11/02 08:14:42;;;;;;;0.65;0.65;;;;;;;13.59;nan;98974.13;4385115;32;32385;-91
2023/11/02 08:17:42;;;;;;;1.27;0.65;;;;;;;13.90;59.24;98970.16;4366771;32;33139;-91
2023/11/02 08:21:04;;;;;;;1.45;1.35;;;;;;;13.94;59.33;98958.38;4356686;32;32922;-92
2023/11/02 08:23:49;;;;;;;0.57;0.57;;;;;;;13.72;59.97;98959.06;4375610;32;32812;-92
2023/11/02 08:26:36;;;;;;;1.27;0.75;;;;;;;14.16;58.85;98957.69;4339452;32;32207;-92
2023/11/02 08:29:24;;;;;;;0.93;0.20;;;;;;;14.13;58.28;98949.94;4373817;32;33709;-92
2023/11/02 08:32:08;;;;;;;0.43;0.43;;;;;;;14.07;59.44;98947.72;4352483;32;33486;-92
2023/11/02 08:34:47;;;;;;;2.00;1.83;;;;;;;14.62;58.22;98942.88;4340793;32;33037;-89
2023/11/02 08:40:36;;;;;;;2.55;0.82;;;;;;;14.73;57.26;98929.69;4390056;32;34012;-86
2023/11/02 08:43:05;;;;;;;0.30;0.28;;;;;;;14.80;57.29;98937.06;4382517;32;33911;-85
2023/11/02 08:45:32;;;;;;;0.82;0.82;;;;;;;14.99;56.37;98919.72;4379113;32;32700;-85
2023/11/02 08:48:00;;;;;;;0.10;0.10;;;;;;;14.57;57.36;98919.31;4383877;32;32552;-86
2023/11/02 08:50:28;;;;;;;1.33;0.77;;;;;;;14.37;58.41;98922.56;4393674;32;32895;-86
2023/11/02 08:52:56;;;;;;;0.65;0.65;;;;;;;14.31;58.51;98916.75;4399907;32;33584;-86
2023/11/02 08:55:24;;;;;;;0.32;0.32;;;;;;;14.21;59.25;98912.22;4401426;32;34223;-86
2023/11/02 08:57:52;;;;;;;1.20;0.47;;;;;;;14.37;58.31;98909.28;4391440;32;32432;-86
2023/11/02 09:00:20;;;;;;;0.68;0.68;;;;;;;14.74;58.30;98910.94;4402528;32;32491;-86
2023/11/02 09:02:47;;;;;;;1.65;1.00;;;;;;;15.05;56.71;98906.00;4389277;32;33344;-86
2023/11/02 09:05:16;;;;;;;3.75;1.35;;;;;;;15.30;56.20;98905.78;4388938;32;33622;-86
2023/11/02 09:10:38;;;;;;;0.98;0.98;;;;;;;15.29;55.75;98903.25;4411691;32;33978;-86
2023/11/02 09:13:06;;;;;;;2.40;1.75;;;;;;;14.81;57.15;98895.37;4399663;32;32832;-85
2023/11/02 09:15:33;;;;;;;0.50;0.50;;;;;;;15.27;56.35;98889.22;4399841;32;33848;-87
2023/11/02 09:18:02;;;;;;;0.43;0.40;;;;;;;15.24;55.63;98892.09;4397439;32;34075;-91
2023/11/02 09:20:31;;;;;;;0.35;0.35;;;;;;;14.62;57.66;98889.75;4385868;32;32908;-91
2023/11/02 09:22:59;;;;;;;0.73;0.73;;;;;;;14.97;56.82;98889.78;4404642;32;33143;-87
2023/11/02 09:25:27;;;;;;;0.10;0.10;;;;;;;15.10;56.87;98894.03;4390561;32;32940;-87
2023/11/02 09:27:54;;;;;;;0.10;0.10;;;;;;;15.34;56.79;98887.78;4387232;32;32266;-87
2023/11/02 09:30:21;;;;;;;1.37;1.27;;;;;;;15.64;56.21;98878.41;4372169;32;33559;-87
2023/11/02 09:32:49;;;;;;;3.15;1.00;;;;;;;15.83;55.65;98871.47;4406220;32;33715;-87
2023/11/02 09:35:19;;;;;;;0.08;0.08;;;;;;;16.33;53.87;98869.22;4385038;32;33669;-87
2023/11/02 09:37:46;;;;;;;0.98;0.88;;;;;;;16.62;53.85;98856.13;4412977;32;33535;-87
2023/11/02 09:40:17;;;;;;;0.40;0.40;;;;;;;16.82;52.76;98853.62;4399050;32;33026;-87
2023/11/02 09:42:45;;;;;;;1.45;0.85;;;;;;;16.74;52.39;98848.94;4397533;32;33995;-87
2023/11/02 09:45:13;;;;;;;0.40;0.40;;;;;;;16.76;52.44;98838.12;4382202;32;33324;-87
2023/11/02 09:47:42;;;;;;;5.57;1.20;;;;;;;16.89;52.70;98825.47;4409002;32;32257;-87
2023/11/02 09:50:10;;;;;;;5.65;1.20;;;;;;;16.78;52.90;98822.88;4410079;32;33065;-87
2023/11/02 09:52:38;;;;;;;0.40;0.40;;;;;;;16.64;54.40;98816.84;4411401;32;33364;-87
2023/11/02 09:55:06;;;;;;;1.60;0.70;;;;;;;17.21;52.57;98809.38;4397509;32;33571;-87
2023/11/02 09:57:35;;;;;;;0.68;0.68;;;;;;;17.34;51.31;98803.81;4407472;32;32303;-87
2023/11/02 10:00:07;;;;;;;1.80;1.37;;;;;;;17.58;51.09;98793.66;4397217;32;32897;-88
2023/11/02 10:02:39;;;;;;;2.55;0.55;;;;;;;17.91;50.12;98789.84;4392590;32;33344;-87
2023/11/02 10:05:10;;;;;;;0.65;0.43;;;;;;;18.00;49.64;98792.66;4409691;32;34657;-87
2023/11/02 10:07:38;;;;;;;1.08;0.88;;;;;;;17.66;51.21;98785.81;4418965;32;32412;-87
2023/11/02 10:10:08;;;;;;;0.30;0.10;;;;;;;18.02;50.65;98778.16;4407618;32;32678;-87
2023/11/02 10:12:37;;;;;;;0.60;0.60;;;;;;;18.34;49.24;98787.75;4409947;32;33136;-87
2023/11/02 10:15:06;;;;;;;0.10;0.10;;;;;;;18.10;50.08;98780.16;4407745;32;32859;-88
2023/11/02 10:17:38;;;;;;;0.75;0.75;;;;;;;18.07;49.95;98775.91;4397373;32;32719;-88
2023/11/02 10:20:08;;;;;;;0.65;0.65;;;;;;;18.63;48.40;98769.03;4396565;32;32814;-88
2023/11/02 10:22:40;;;;;;;0.45;0.45;;;;;;;18.85;48.64;98754.53;4394546;32;33052;-88
2023/11/02 10:25:12;;;;;;;0.75;0.50;;;;;;;18.89;48.06;98745.19;4409122;32;32637;-88
2023/11/02 10:27:46;;;;;;;1.27;1.15;;;;;;;19.06;48.13;98748.94;4410344;32;32654;-87
2023/11/02 10:30:14;;;;;;;0.40;0.40;;;;;;;19.22;46.92;98749.16;4409907;32;32653;-88
2023/11/02 10:32:41;;;;;;;0.57;0.57;;;;;;;19.22;46.73;98743.81;4406883;32;33246;-87
2023/11/02 10:35:09;;;;;;;0.57;0.57;;;;;;;18.89;48.23;98743.34;4380981;32;33094;-85
2023/11/02 10:37:37;;;;;;;1.02;0.73;;;;;;;19.43;47.32;98733.72;4382695;32;31279;-88
2023/11/02 10:40:06;;;;;;;0.68;0.45;;;;;;;19.14;47.86;98739.22;4382089;32;33218;-88
2023/11/02 10:42:35;;;;;;;1.10;0.62;;;;;;;19.41;47.63;98735.69;4374828;32;33359;-87
2023/11/02 10:45:06;;;;;;;1.48;0.98;;;;;;;19.77;46.48;98725.06;4380267;32;32731;-88
2023/11/02 10:47:34;;;;;;;0.52;0.52;;;;;;;19.43;47.08;98727.53;4393596;32;32894;-88
2023/11/02 10:50:02;;;;;;;0.77;0.77;;;;;;;19.46;47.51;98711.13;4368911;32;33762;-88
2023/11/02 10:52:42;;;;;;;0.60;0.50;;;;;;;19.08;48.42;98725.56;4370929;32;33363;-91
2023/11/02 10:55:37;;;;;;;1.08;0.52;;;;;;;19.42;47.65;98723.16;4383363;32;33133;-92
2023/11/02 10:58:07;;;;;;;6.32;1.30;;;;;;;20.09;46.25;98716.53;4383666;32;32347;-90
2023/11/02 11:00:35;;;;;;;0.77;0.70;;;;;;;19.69;47.03;98701.72;4379731;32;32590;-91
2023/11/02 11:03:09;;;;;;;0.57;0.57;;;;;;;19.80;46.53;98702.53;4395769;32;34304;-91
2023/11/02 11:05:38;;;;;;;0.30;0.30;;;;;;;19.98;46.58;98694.47;4395094;32;33179;-90
2023/11/02 11:08:09;;;;;;;1.63;0.77;;;;;;;20.61;44.44;98697.84;4395525;32;32278;-91
2023/11/02 11:10:37;;;;;;;0.30;0.30;;;;;;;20.06;45.95;98681.16;4382412;32;32996;-91
2023/11/02 11:13:09;;;;;;;0.82;0.32;;;;;;;19.97;45.61;98674.87;4382817;32;33238;-91
2023/11/02 11:15:37;;;;;;;1.30;0.87;;;;;;;20.11;45.98;98668.97;4381299;32;33513;-91
2023/11/02 11:18:06;;;;;;;0.40;0.40;;;;;;;20.51;44.71;98653.34;4370390;32;32934;-91
2023/11/02 11:20:34;;;;;;;0.45;0.45;;;;;;;20.48;45.00;98667.09;4395672;32;32925;-91
2023/11/02 11:23:04;;;;;;;1.05;0.62;;;;;;;20.50;44.74;98654.34;4382991;32;32326;-91
2023/11/02 11:25:32;;;;;;;1.45;1.17;;;;;;;20.61;44.76;98652.25;4382948;32;32944;-91
2023/11/02 11:28:00;;;;;;;0.73;0.22;;;;;;;20.61;45.36;98649.59;4382928;32;34931;-91
2023/11/02 11:30:31;;;;;;;0.17;0.10;;;;;;;21.16;44.38;98643.78;4368386;32;32585;-90
2023/11/02 11:33:01;;;;;;;0.37;0.17;;;;;;;21.20;43.48;98628.19;4379672;32;33070;-90
2023/11/02 11:35:29;;;;;;;0.20;0.20;;;;;;;21.14;42.91;98618.97;4405294;32;33154;-91
2023/11/02 11:40:30;;;;;;;4.57;0.55;;;;;;;21.05;43.38;98613.72;4394058;32;33361;-91
2023/11/02 11:43:12;;;;;;;3.70;0.57;;;;;;;20.75;43.87;98601.69;4391824;32;34293;-90
2023/11/02 11:45:43;;;;;;;11.32;0.50;;;;;;;21.03;42.71;98599.63;4398886;32;33594;-91
2023/11/02 11:48:10;;;;;;;0.30;0.30;;;;;;;20.72;44.13;98602.84;4393125;32;32758;-91
2023/11/02 11:50:45;;;;;;;0.60;0.60;;;;;;;20.33;44.83;98592.56;4388527;32;33390;-89
2023/11/02 11:53:17;;;;;;;0.73;0.55;;;;;;;20.57;44.29;98583.84;4404814;32;34329;-91
2023/11/02 11:55:47;;;;;;;0.65;0.43;;;;;;;20.48;44.23;98578.59;4395202;32;32960;-91
2023/11/02 11:58:19;;;;;;;0.25;0.25;;;;;;;20.86;44.13;98577.28;4387319;32;32511;-91
2023/11/02 12:00:50;;;;;;;1.27;0.73;;;;;;;20.93;43.58;98564.88;4394568;32;32953;-90
2023/11/02 12:03:48;;;;;;;0.37;0.30;;;;;;;20.52;44.15;98570.09;4407493;32;33060;-90
2023/11/02 12:06:36;;;;;;;0.32;0.25;;;;;;;20.52;44.66;98558.53;4387051;32;33043;-90
2023/11/02 12:09:09;;;;;;;0.60;0.60;;;;;;;20.87;43.71;98552.13;4401508;32;33035;-91
2023/11/02 12:11:38;;;;;;;0.80;0.80;;;;;;;21.20;43.08;98545.81;4402388;32;33983;-91
2023/11/02 12:14:13;;;;;;;0.62;0.62;;;;;;;20.88;43.28;98543.06;4391803;32;34238;-90
2023/11/02 12:16:41;;;;;;;0.00;0.00;;;;;;;21.06;43.17;98519.62;4401517;32;33449;-90
2023/11/02 12:19:11;;;;;;;0.90;0.47;;;;;;;21.15;43.21;98517.81;4411653;32;32268;-91
2023/11/02 12:21:40;;;;;;;0.28;0.28;;;;;;;21.27;43.06;98518.31;4382597;32;32810;-90
2023/11/02 12:24:10;;;;;;;0.35;0.22;;;;;;;21.12;43.10;98510.91;4394695;32;33761;-90
2023/11/02 12:26:40;;;;;;;0.13;0.13;;;;;;;20.55;43.00;98494.66;4394925;32;33103;-90